Time;durP1;ratioP1;P1;durP2;ratioP2;P2;SDS_P1;SDS_P2;PMS_P1;PMS_P2;Temp;Humidity;BMP_temperature;BMP_pressure;BME280_temperature;BME280_humidity;BME280_pressure;Samples;Min_cycle;Max_cycle;Signal;HPM_P1;HPM_P2
2022/12/12 00:01:34;;;;;;;19.60;10.88;;;-2.10;98.50;;;;;;5003548;28;20033;-78
2022/12/12 00:04:00;;;;;;;21.83;10.95;;;-2.10;98.50;;;;;;4998975;28;20484;-81
2022/12/12 00:06:26;;;;;;;19.40;10.15;;;-2.10;98.00;;;;;;4997703;28;20436;-80
2022/12/12 00:08:52;;;;;;;17.90;9.20;;;-2.00;98.00;;;;;;4999105;28;20172;-81
2022/12/12 00:11:19;;;;;;;20.75;10.02;;;-2.10;98.10;;;;;;4998876;28;20134;-80
2022/12/12 00:13:45;;;;;;;19.38;9.07;;;-2.00;98.30;;;;;;5000055;28;20546;-79
2022/12/12 00:16:14;;;;;;;15.48;8.98;;;-2.00;98.40;;;;;;5000229;28;20475;-79
2022/12/12 00:18:40;;;;;;;17.50;9.20;;;-2.00;98.20;;;;;;5006371;28;20121;-82
2022/12/12 00:21:12;;;;;;;18.58;10.02;;;-2.00;98.30;;;;;;5004506;28;20030;-80
2022/12/12 00:23:38;;;;;;;16.75;9.07;;;-2.00;98.30;;;;;;4998257;28;20112;-81
2022/12/12 00:26:06;;;;;;;26.33;14.25;;;-2.10;98.30;;;;;;4998025;28;20034;-80
2022/12/12 00:28:32;;;;;;;22.40;12.38;;;-2.10;98.10;;;;;;4998887;28;20031;-79
2022/12/12 00:30:58;;;;;;;20.40;10.80;;;-2.10;98.10;;;;;;4998683;28;20392;-78
2022/12/12 00:33:23;;;;;;;16.83;9.40;;;-2.10;98.00;;;;;;5019025;28;20042;-80
2022/12/12 00:35:51;;;;;;;20.20;10.90;;;-2.10;98.10;;;;;;5016798;28;20136;-79
2022/12/12 00:38:18;;;;;;;22.00;11.48;;;-2.10;98.20;;;;;;5017300;28;20026;-78
2022/12/12 00:40:44;;;;;;;20.10;10.30;;;-2.10;98.30;;;;;;5017835;28;20038;-79
2022/12/12 00:43:09;;;;;;;21.15;11.43;;;-2.20;98.20;;;;;;5003944;28;20438;-81
2022/12/12 00:45:36;;;;;;;21.42;12.40;;;-2.10;98.30;;;;;;5001987;28;20034;-79
2022/12/12 00:48:04;;;;;;;21.55;11.45;;;-2.10;98.30;;;;;;4998760;28;20400;-80
2022/12/12 00:50:31;;;;;;;20.90;10.95;;;-2.10;98.30;;;;;;5008425;28;20088;-79
2022/12/12 00:52:57;;;;;;;16.40;10.45;;;-2.10;98.00;;;;;;5023641;28;20026;-80
2022/12/12 00:55:24;;;;;;;18.33;10.23;;;-2.20;98.00;;;;;;5034998;28;20038;-81
2022/12/12 00:57:50;;;;;;;20.15;10.77;;;-2.20;98.10;;;;;;5034050;28;20030;-78
2022/12/12 01:00:16;;;;;;;20.75;11.48;;;-2.20;98.20;;;;;;5032550;28;20030;-81
2022/12/12 01:02:42;;;;;;;19.33;10.98;;;-2.20;98.30;;;;;;5022438;28;20037;-80
2022/12/12 01:05:08;;;;;;;19.35;10.50;;;-2.20;98.50;;;;;;5019220;28;20371;-79
2022/12/12 01:07:34;;;;;;;19.75;11.80;;;-2.20;98.60;;;;;;5018169;28;20076;-78
2022/12/12 01:10:00;;;;;;;19.42;10.70;;;-2.20;98.20;;;;;;5017545;28;20545;-80
2022/12/12 01:12:25;;;;;;;22.63;11.52;;;-2.20;98.40;;;;;;5023998;28;20042;-80
2022/12/12 01:14:51;;;;;;;43.58;19.90;;;-2.30;98.30;;;;;;5026714;28;20037;-81
2022/12/12 01:17:17;;;;;;;21.92;10.63;;;-2.30;98.50;;;;;;5021477;28;20018;-79
2022/12/12 01:19:42;;;;;;;20.75;11.10;;;-2.30;98.50;;;;;;5017784;28;20117;-79
2022/12/12 01:22:08;;;;;;;23.15;11.38;;;-2.30;98.40;;;;;;4996861;28;20030;-79
2022/12/12 01:24:34;;;;;;;18.30;10.10;;;-2.40;98.50;;;;;;4998041;28;20026;-80
2022/12/12 01:27:01;;;;;;;19.67;10.73;;;-2.40;98.70;;;;;;4999924;28;20030;-79
2022/12/12 01:29:27;;;;;;;19.27;10.93;;;-2.40;98.70;;;;;;4958980;28;1085635;-79
2022/12/12 01:31:53;;;;;;;19.58;10.27;;;-2.30;98.70;;;;;;4997633;28;20475;-79
2022/12/12 01:34:19;;;;;;;19.15;10.70;;;-2.30;98.70;;;;;;5006493;28;20036;-81
2022/12/12 01:36:44;;;;;;;22.05;10.98;;;-2.30;98.70;;;;;;5017495;28;20029;-80
2022/12/12 01:39:10;;;;;;;18.10;9.85;;;-2.30;98.50;;;;;;5015262;28;20084;-79
2022/12/12 01:41:36;;;;;;;17.30;9.18;;;-2.30;98.30;;;;;;5017181;28;20030;-79
2022/12/12 01:44:37;;;;;;;17.40;9.75;;;-2.40;98.40;;;;;;5012500;28;20034;-80
2022/12/12 01:47:03;;;;;;;19.48;10.13;;;-2.40;98.40;;;;;;4994838;28;20031;-80
2022/12/12 01:49:29;;;;;;;18.00;10.20;;;-2.40;98.60;;;;;;5005645;28;20027;-79
2022/12/12 01:51:59;;;;;;;17.40;9.68;;;-2.50;98.60;;;;;;5017499;28;20386;-80
2022/12/12 01:54:32;;;;;;;19.10;9.98;;;-2.50;98.70;;;;;;5018500;28;20100;-79
2022/12/12 01:57:02;;;;;;;19.40;9.82;;;-2.60;98.50;;;;;;5016413;28;20072;-79
2022/12/12 01:59:28;;;;;;;20.05;10.65;;;-2.60;98.30;;;;;;5017462;28;20120;-78
2022/12/12 02:01:54;;;;;;;17.58;8.80;;;-2.60;98.50;;;;;;5016930;28;20097;-79
2022/12/12 02:04:21;;;;;;;19.70;9.35;;;-2.60;98.70;;;;;;5036797;22;20057;-81
2022/12/12 02:06:50;;;;;;;18.25;9.02;;;-2.60;98.70;;;;;;5029360;28;20026;-81
2022/12/12 02:09:16;;;;;;;18.73;9.35;;;-2.50;98.70;;;;;;5030713;28;20037;-81
2022/12/12 02:11:49;;;;;;;16.88;8.52;;;-2.50;98.70;;;;;;5031613;28;20053;-80
2022/12/12 02:14:17;;;;;;;;;;;-2.50;98.80;;;;;;5032788;28;20095;-80
2022/12/12 02:16:53;;;;;;;17.83;9.20;;;-2.50;98.70;;;;;;5026781;28;19905;-80
2022/12/12 02:19:57;;;;;;;18.77;9.77;;;-2.40;98.70;;;;;;5040323;28;20105;-80
2022/12/12 02:22:31;;;;;;;15.50;8.80;;;-2.40;98.60;;;;;;5020443;28;20060;-81
2022/12/12 02:25:21;;;;;;;17.90;9.20;;;-2.40;98.60;;;;;;5031222;28;20030;-81
2022/12/12 02:28:15;;;;;;;17.02;9.38;;;-2.40;98.60;;;;;;5030323;28;20077;-80
2022/12/12 02:31:13;;;;;;;14.68;8.32;;;-2.40;98.60;;;;;;5030958;28;20245;-80
2022/12/12 02:33:39;;;;;;;14.93;8.05;;;-2.30;98.60;;;;;;5028924;28;20052;-80
2022/12/12 02:36:10;;;;;;;16.98;9.25;;;-2.30;98.40;;;;;;5021269;28;20034;-81
2022/12/12 02:38:58;;;;;;;17.25;8.38;;;-2.30;98.20;;;;;;5009675;28;20105;-79
2022/12/12 02:41:34;;;;;;;16.23;8.45;;;-2.30;98.20;;;;;;5009130;28;20040;-80
2022/12/12 02:44:21;;;;;;;16.02;8.90;;;-2.30;98.00;;;;;;5008409;28;20026;-81
2022/12/12 02:46:56;;;;;;;19.20;8.95;;;-2.30;97.70;;;;;;5017077;28;20057;-82
2022/12/12 02:49:27;;;;;;;19.98;8.77;;;-2.30;97.60;;;;;;5035231;28;20030;-81
2022/12/12 02:51:55;;;;;;;17.45;7.80;;;-2.30;97.80;;;;;;5008985;28;20038;-81
2022/12/12 02:54:22;;;;;;;14.32;7.80;;;-2.30;97.90;;;;;;5007647;28;20053;-80
2022/12/12 02:56:54;;;;;;;16.63;7.93;;;-2.20;97.80;;;;;;5014677;28;20076;-80
2022/12/12 02:59:20;;;;;;;;;;;-2.20;97.40;;;;;;5028412;28;20050;-80
2022/12/12 03:02:23;;;;;;;13.85;7.70;;;-2.20;97.50;;;;;;5028349;28;19917;-80
2022/12/12 03:08:10;;;;;;;14.57;8.13;;;-2.20;96.90;;;;;;5026410;28;20069;-81
2022/12/12 03:11:17;;;;;;;13.52;7.47;;;-2.20;97.00;;;;;;5027187;28;20092;-81
2022/12/12 03:14:03;;;;;;;15.02;7.97;;;-2.20;97.00;;;;;;4966438;29;20107;-81
2022/12/12 03:16:43;;;;;;;14.73;7.68;;;-2.30;97.30;;;;;;5023053;28;20095;-81
2022/12/12 03:19:18;;;;;;;13.18;7.43;;;-2.30;97.40;;;;;;5034073;28;20061;-81
2022/12/12 03:21:50;;;;;;;13.73;7.82;;;-2.20;97.70;;;;;;5038451;28;20517;-81
2022/12/12 03:24:21;;;;;;;15.32;8.50;;;-2.20;97.60;;;;;;5038335;28;20544;-81
2022/12/12 03:26:57;;;;;;;19.65;8.43;;;-2.20;97.50;;;;;;5038712;28;20075;-81
2022/12/12 03:29:45;;;;;;;15.25;8.23;;;-2.30;97.50;;;;;;5024643;28;20026;-82
2022/12/12 03:32:18;;;;;;;18.50;9.35;;;-2.30;97.60;;;;;;5027180;28;20029;-81
2022/12/12 03:34:51;;;;;;;19.60;8.73;;;-2.30;97.60;;;;;;5026356;28;20033;-81
2022/12/12 03:37:30;;;;;;;17.02;8.50;;;-2.40;97.70;;;;;;5024876;28;20014;-81
2022/12/12 03:40:01;;;;;;;19.05;8.60;;;-2.40;97.80;;;;;;5013117;28;20076;-81
2022/12/12 03:42:47;;;;;;;16.42;8.13;;;-2.40;98.00;;;;;;5028404;28;20017;-81
2022/12/12 03:45:47;;;;;;;16.85;8.50;;;-2.50;98.10;;;;;;5028630;28;20018;-81
2022/12/12 03:48:19;;;;;;;18.75;9.35;;;-2.50;98.30;;;;;;5025054;28;20034;-81
2022/12/12 03:50:50;;;;;;;14.35;8.68;;;-2.50;98.50;;;;;;5031073;28;20367;-81
2022/12/12 03:53:48;;;;;;;19.85;10.07;;;-2.50;98.40;;;;;;5020751;28;20475;-81
2022/12/12 03:56:22;;;;;;;17.30;9.52;;;-2.50;98.30;;;;;;5015268;28;20072;-81
2022/12/12 03:59:05;;;;;;;21.45;9.75;;;-2.60;98.20;;;;;;5031732;28;20022;-79
2022/12/12 04:01:47;;;;;;;15.15;8.57;;;-2.60;98.20;;;;;;5033271;28;20071;-79
2022/12/12 04:04:47;;;;;;;16.98;8.82;;;-2.70;98.40;;;;;;5036600;28;20034;-80
2022/12/12 04:07:23;;;;;;;17.98;9.77;;;-2.70;98.70;;;;;;5030622;28;20022;-80
2022/12/12 04:12:57;;;;;;;17.67;9.15;;;-2.80;98.90;;;;;;5009642;28;20045;-81
2022/12/12 04:15:48;;;;;;;19.60;8.85;;;-2.80;99.10;;;;;;5006962;28;20166;-81
2022/12/12 04:18:46;;;;;;;17.40;9.32;;;-2.90;99.20;;;;;;5022395;28;20056;-81
2022/12/12 04:24:37;;;;;;;16.17;7.90;;;-3.00;99.40;;;;;;5006408;28;20030;-80
2022/12/12 04:27:18;;;;;;;17.02;8.55;;;-3.00;99.80;;;;;;5005831;28;20086;-81
2022/12/12 04:29:57;;;;;;;16.50;8.77;;;-3.00;99.70;;;;;;5021503;28;20042;-81
2022/12/12 04:32:25;;;;;;;18.42;8.98;;;-3.00;99.60;;;;;;5036653;28;20133;-80
2022/12/12 04:34:59;;;;;;;15.32;8.25;;;-3.00;99.80;;;;;;5034770;28;20089;-80
2022/12/12 04:37:34;;;;;;;17.27;9.07;;;-3.00;99.90;;;;;;5023448;28;20052;-81
2022/12/12 04:40:03;;;;;;;17.65;9.57;;;-3.00;99.90;;;;;;5017173;28;20033;-81
2022/12/12 04:42:35;;;;;;;15.55;8.43;;;-3.00;99.70;;;;;;5006062;28;20042;-79
2022/12/12 04:45:24;;;;;;;15.57;9.00;;;-3.00;99.70;;;;;;4997758;28;20089;-80
2022/12/12 04:47:52;;;;;;;18.42;8.93;;;-3.00;99.80;;;;;;5006933;28;20026;-80
2022/12/12 04:50:21;;;;;;;20.85;10.85;;;-3.00;99.90;;;;;;5023187;28;20026;-80
2022/12/12 04:52:48;;;;;;;18.35;9.80;;;-3.00;99.90;;;;;;5020354;28;20025;-81
2022/12/12 04:55:34;;;;;;;17.75;9.40;;;-3.00;99.80;;;;;;5020743;28;20045;-80
2022/12/12 04:58:01;;;;;;;19.50;9.32;;;-2.90;99.90;;;;;;5022621;28;20075;-81
2022/12/12 05:00:33;;;;;;;18.48;10.23;;;-3.00;99.70;;;;;;5019234;28;20080;-80
2022/12/12 05:03:17;;;;;;;20.40;9.73;;;-2.90;99.70;;;;;;5014026;28;20022;-79
2022/12/12 05:05:50;;;;;;;18.38;10.00;;;-3.00;99.50;;;;;;5019950;28;20130;-81
2022/12/12 05:08:24;;;;;;;22.08;10.52;;;-2.90;99.70;;;;;;5018244;28;20398;-80
2022/12/12 05:11:01;;;;;;;15.70;8.43;;;-2.90;99.60;;;;;;5017546;28;20026;-79
2022/12/12 05:13:30;;;;;;;17.67;9.55;;;-2.90;99.60;;;;;;5006979;28;20105;-79
2022/12/12 05:15:57;;;;;;;15.65;8.30;;;-2.90;99.70;;;;;;5020073;28;20169;-79
2022/12/12 05:18:23;;;;;;;18.00;9.20;;;-2.90;99.80;;;;;;5027237;28;20047;-79
2022/12/12 05:20:49;;;;;;;17.05;9.43;;;-2.80;99.80;;;;;;5028446;28;20021;-79
2022/12/12 05:23:15;;;;;;;18.65;9.55;;;-2.80;99.60;;;;;;5019426;28;20036;-80
2022/12/12 05:25:40;;;;;;;16.95;9.13;;;-2.80;99.40;;;;;;5018809;28;20022;-79
2022/12/12 05:28:06;;;;;;;17.75;9.48;;;-2.80;99.50;;;;;;5018610;28;20086;-79
2022/12/12 05:30:32;;;;;;;16.67;9.35;;;-2.80;99.30;;;;;;5019316;28;20029;-79
2022/12/12 05:32:58;;;;;;;20.02;9.50;;;-2.80;98.80;;;;;;5019217;28;20390;-79
2022/12/12 05:35:24;;;;;;;17.15;9.35;;;-2.80;98.80;;;;;;5000554;28;20106;-80
2022/12/12 05:37:50;;;;;;;16.35;8.52;;;-2.90;98.80;;;;;;4999129;28;20022;-80
2022/12/12 05:40:15;;;;;;;17.02;10.10;;;-2.90;98.80;;;;;;5000340;28;20015;-80
2022/12/12 05:42:41;;;;;;;16.98;9.05;;;-2.90;99.00;;;;;;5009384;28;20487;-80
2022/12/12 05:45:09;;;;;;;13.20;7.55;;;-2.90;98.80;;;;;;5019026;28;20033;-80
2022/12/12 05:47:35;;;;;;;16.77;9.55;;;-2.90;99.00;;;;;;5021662;28;20033;-79
2022/12/12 05:50:00;;;;;;;16.13;8.32;;;-2.90;99.00;;;;;;5032705;28;20043;-80
2022/12/12 05:52:26;;;;;;;16.13;8.57;;;-2.80;98.90;;;;;;5028491;28;20030;-80
2022/12/12 05:54:52;;;;;;;20.27;10.38;;;-2.90;98.70;;;;;;4999152;28;20375;-80
2022/12/12 05:57:18;;;;;;;20.65;9.93;;;-2.90;98.60;;;;;;5000017;28;20036;-80
2022/12/12 05:59:45;;;;;;;14.10;8.15;;;-2.90;98.70;;;;;;5017307;28;20303;-79
2022/12/12 06:02:11;;;;;;;16.15;8.40;;;-2.90;98.80;;;;;;5020312;28;20037;-76
2022/12/12 06:04:36;;;;;;;19.00;9.20;;;-2.90;98.60;;;;;;5014051;28;20045;-76
2022/12/12 06:07:02;;;;;;;16.77;8.57;;;-2.90;98.40;;;;;;5020913;28;20030;-79
2022/12/12 06:09:28;;;;;;;16.42;7.80;;;-2.90;98.60;;;;;;5018986;28;20038;-77
2022/12/12 06:11:54;;;;;;;22.85;9.98;;;-3.00;98.90;;;;;;5020833;28;20037;-78
2022/12/12 06:14:19;;;;;;;16.92;8.68;;;-2.90;99.10;;;;;;5017958;28;20033;-78
2022/12/12 06:16:45;;;;;;;15.23;8.82;;;-2.90;99.00;;;;;;5021817;28;20022;-78
2022/12/12 06:19:11;;;;;;;19.85;9.30;;;-2.90;98.90;;;;;;5015205;28;20064;-78
2022/12/12 06:21:37;;;;;;;16.05;8.45;;;-3.00;98.70;;;;;;5022876;28;20038;-78
2022/12/12 06:24:05;;;;;;;21.10;9.52;;;-3.10;98.90;;;;;;5017801;28;20033;-77
2022/12/12 06:26:31;;;;;;;16.58;8.60;;;-3.10;99.10;;;;;;5021508;28;20100;-77
2022/12/12 06:28:56;;;;;;;19.35;8.65;;;-3.10;99.40;;;;;;5014781;28;20030;-77
2022/12/12 06:31:22;;;;;;;15.63;8.25;;;-3.20;99.50;;;;;;5018693;28;20065;-76
2022/12/12 06:33:48;;;;;;;18.15;9.63;;;-3.20;99.70;;;;;;5015818;28;20394;-76
2022/12/12 06:36:25;;;;;;;15.85;8.88;;;-3.10;99.80;;;;;;5015260;28;20030;-76
2022/12/12 06:38:57;;;;;;;18.67;8.95;;;-3.20;99.90;;;;;;5020977;28;20071;-77
2022/12/12 06:41:24;;;;;;;15.33;8.43;;;-3.10;99.90;;;;;;5022462;28;20471;-77
2022/12/12 06:43:50;;;;;;;15.90;8.30;;;-3.10;99.90;;;;;;5021957;28;20026;-77
2022/12/12 06:46:18;;;;;;;20.02;9.32;;;-3.00;99.90;;;;;;5021676;28;20106;-77
2022/12/12 06:48:45;;;;;;;16.00;9.15;;;-3.00;99.90;;;;;;5028668;28;20025;-76
2022/12/12 06:51:15;;;;;;;27.00;11.23;;;-3.00;99.90;;;;;;5036156;28;20033;-77
2022/12/12 06:53:41;;;;;;;20.88;9.93;;;-3.00;99.80;;;;;;5044442;28;20030;-77
2022/12/12 06:56:13;;;;;;;19.75;10.10;;;-3.00;99.50;;;;;;5044422;28;20029;-77
2022/12/12 06:58:39;;;;;;;16.13;9.27;;;-3.00;99.50;;;;;;5042586;28;20078;-77
2022/12/12 07:01:05;;;;;;;21.55;10.13;;;-3.10;99.30;;;;;;5022275;28;20081;-77
2022/12/12 07:03:31;;;;;;;20.40;9.80;;;-3.10;99.20;;;;;;5014442;28;20034;-76
2022/12/12 07:05:58;;;;;;;17.13;9.15;;;-3.10;99.30;;;;;;5015314;28;20018;-76
2022/12/12 07:08:24;;;;;;;18.52;9.55;;;-3.10;99.40;;;;;;5015755;28;20026;-77
2022/12/12 07:10:49;;;;;;;14.05;8.02;;;-3.10;99.40;;;;;;5012313;28;20092;-76
2022/12/12 07:13:15;;;;;;;15.40;8.85;;;-3.20;99.40;;;;;;5017822;28;20030;-75
2022/12/12 07:15:45;;;;;;;15.13;8.30;;;-3.30;99.60;;;;;;5019265;28;20034;-76
2022/12/12 07:18:12;;;;;;;16.00;8.75;;;-3.40;99.90;;;;;;5015279;28;20026;-76
2022/12/12 07:20:39;;;;;;;16.67;8.77;;;-3.40;99.90;;;;;;5016193;28;20118;-77
2022/12/12 07:23:05;;;;;;;15.45;7.70;;;-3.40;99.90;;;;;;5008065;28;20339;-75
2022/12/12 07:25:31;;;;;;;16.05;8.63;;;-3.40;99.90;;;;;;5021914;28;20029;-75
2022/12/12 07:27:56;;;;;;;16.98;8.27;;;-3.50;99.90;;;;;;5014963;28;20028;-77
2022/12/12 07:30:22;;;;;;;17.27;8.90;;;-3.50;99.90;;;;;;5020705;28;20096;-77
2022/12/12 07:32:49;;;;;;;14.40;7.78;;;-3.60;99.90;;;;;;5016911;28;20040;-77
2022/12/12 07:35:15;;;;;;;17.70;9.02;;;-3.60;99.90;;;;;;5022360;28;20072;-77
2022/12/12 07:37:40;;;;;;;17.52;8.93;;;-3.60;99.90;;;;;;5025896;28;20030;-77
2022/12/12 07:40:07;;;;;;;17.23;9.00;;;-3.70;99.90;;;;;;5022868;28;20445;-78
2022/12/12 07:42:32;;;;;;;15.45;7.90;;;-3.70;99.90;;;;;;5006355;28;20034;-79
2022/12/12 07:44:58;;;;;;;14.18;7.43;;;-3.60;99.90;;;;;;5021230;28;20049;-78
2022/12/12 07:47:23;;;;;;;17.00;8.77;;;-3.50;99.90;;;;;;5018654;28;20030;-77
2022/12/12 07:49:49;;;;;;;18.42;8.88;;;-3.50;99.90;;;;;;5018543;28;20060;-78
2022/12/12 07:52:15;;;;;;;14.00;7.43;;;-3.40;99.90;;;;;;5003021;28;20054;-77
2022/12/12 07:54:40;;;;;;;17.95;8.52;;;-3.40;99.90;;;;;;4997594;28;20122;-77
2022/12/12 07:57:09;;;;;;;15.82;8.38;;;-3.40;99.90;;;;;;4995448;28;20022;-77
2022/12/12 07:59:35;;;;;;;17.80;8.85;;;-3.30;99.90;;;;;;4996143;28;20498;-77
2022/12/12 08:02:00;;;;;;;17.23;9.05;;;-3.30;99.90;;;;;;5000046;28;20038;-77
2022/12/12 08:04:26;;;;;;;18.35;7.85;;;-3.30;99.90;;;;;;4995447;28;20121;-77
2022/12/12 08:06:52;;;;;;;21.08;8.90;;;-3.30;99.80;;;;;;4997618;28;20080;-78
2022/12/12 08:09:17;;;;;;;19.25;9.57;;;-3.20;99.90;;;;;;4998250;28;20427;-77
2022/12/12 08:11:43;;;;;;;16.98;8.15;;;-3.20;99.60;;;;;;5011457;28;20038;-77
2022/12/12 08:14:08;;;;;;;15.02;7.70;;;-3.10;99.50;;;;;;5014400;28;20052;-77
2022/12/12 08:16:34;;;;;;;18.45;8.85;;;-3.20;99.50;;;;;;5020699;28;20026;-78
2022/12/12 08:19:00;;;;;;;17.00;7.78;;;-3.10;99.50;;;;;;5027210;28;20026;-77
2022/12/12 08:21:26;;;;;;;14.07;7.65;;;-3.10;99.20;;;;;;5016401;28;20362;-78
2022/12/12 08:24:01;;;;;;;12.95;6.82;;;-3.00;99.20;;;;;;5012774;28;20040;-77
2022/12/12 08:26:28;;;;;;;12.45;7.18;;;-3.00;99.10;;;;;;5014146;28;20022;-78
2022/12/12 08:28:55;;;;;;;14.15;7.70;;;-3.00;98.90;;;;;;5014380;28;20032;-79
2022/12/12 08:31:21;;;;;;;14.77;8.32;;;-2.90;99.10;;;;;;5008311;28;20034;-78
2022/12/12 08:33:49;;;;;;;13.23;6.97;;;-2.90;98.90;;;;;;4996109;28;20081;-78
2022/12/12 08:36:20;;;;;;;12.00;6.68;;;-2.90;98.90;;;;;;4994739;28;20451;-78
2022/12/12 08:38:46;;;;;;;14.55;7.53;;;-2.80;98.80;;;;;;4998789;28;20113;-78
2022/12/12 08:41:13;;;;;;;12.38;7.15;;;-2.80;98.70;;;;;;4998381;28;20086;-79
2022/12/12 08:43:40;;;;;;;12.65;7.32;;;-2.70;98.60;;;;;;5015524;28;20091;-78
2022/12/12 08:46:07;;;;;;;18.52;7.65;;;-2.70;98.00;;;;;;5017345;28;20030;-79
2022/12/12 08:48:33;;;;;;;15.68;7.60;;;-2.70;97.90;;;;;;5025900;28;20021;-77
2022/12/12 08:51:02;;;;;;;15.13;6.10;;;-2.60;98.00;;;;;;5028561;28;20451;-78
2022/12/12 08:53:28;;;;;;;14.93;8.02;;;-2.50;97.90;;;;;;5020398;28;20034;-78
2022/12/12 08:55:54;;;;;;;13.48;6.80;;;-2.40;97.90;;;;;;4995169;28;20032;-77
2022/12/12 08:58:20;;;;;;;12.07;6.35;;;-2.40;97.40;;;;;;5005898;28;20471;-80
2022/12/12 09:00:45;;;;;;;13.20;6.28;;;-2.30;97.30;;;;;;5020811;28;20387;-81
2022/12/12 09:03:11;;;;;;;14.43;6.93;;;-2.30;97.00;;;;;;5008271;28;20118;-82
2022/12/12 09:05:41;;;;;;;13.40;7.25;;;-2.20;96.70;;;;;;5002683;28;20092;-81
2022/12/12 09:08:06;;;;;;;11.10;6.40;;;-2.20;96.50;;;;;;5005116;28;20383;-82
2022/12/12 09:10:32;;;;;;;14.82;6.90;;;-2.10;96.40;;;;;;5001484;28;20096;-82
2022/12/12 09:12:58;;;;;;;11.40;6.15;;;-2.00;96.20;;;;;;5002895;28;20105;-81
2022/12/12 09:15:23;;;;;;;9.98;6.15;;;-1.90;95.90;;;;;;5017798;28;20041;-82
2022/12/12 09:17:49;;;;;;;10.02;5.78;;;-1.80;95.80;;;;;;5022441;28;20363;-81
2022/12/12 09:20:15;;;;;;;12.93;5.40;;;-1.70;95.50;;;;;;5031275;28;20030;-82
2022/12/12 09:22:40;;;;;;;12.20;5.97;;;-1.70;95.00;;;;;;5030416;28;20041;-81
2022/12/12 09:25:06;;;;;;;10.23;5.50;;;-1.70;95.00;;;;;;5019629;28;20030;-81
2022/12/12 09:27:32;;;;;;;9.52;5.00;;;-1.60;95.10;;;;;;5019809;28;20092;-81
2022/12/12 09:29:58;;;;;;;10.45;5.30;;;-1.50;95.00;;;;;;5019560;28;20049;-81
2022/12/12 09:32:24;;;;;;;9.43;4.97;;;-1.40;94.70;;;;;;5021269;28;20041;-80
2022/12/12 09:34:49;;;;;;;10.57;5.05;;;-1.30;94.40;;;;;;5033236;28;20010;-79
2022/12/12 09:37:15;;;;;;;13.15;6.30;;;-1.30;94.10;;;;;;5022497;28;20033;-80
2022/12/12 09:39:40;;;;;;;14.05;5.45;;;-1.20;93.90;;;;;;5021604;28;20080;-78
2022/12/12 09:42:23;;;;;;;12.25;5.03;;;-1.10;93.70;;;;;;5023391;28;20037;-80
2022/12/12 09:44:50;;;;;;;;;;;-1.10;93.20;;;;;;5013581;28;20065;-79
2022/12/12 09:47:21;;;;;;;8.95;4.93;;;-1.00;93.30;;;;;;5009102;28;19996;-80
2022/12/12 09:49:53;;;;;;;12.48;5.57;;;-0.90;93.20;;;;;;5027204;28;20086;-79
2022/12/12 09:52:33;;;;;;;14.57;6.50;;;-0.90;93.10;;;;;;5027272;28;20030;-78
2022/12/12 09:55:01;;;;;;;12.35;5.80;;;-0.70;93.00;;;;;;5025262;28;20026;-78
2022/12/12 09:57:43;;;;;;;10.15;5.35;;;-0.70;92.90;;;;;;5027304;28;20541;-78
2022/12/12 10:00:11;;;;;;;11.23;6.57;;;-0.50;92.80;;;;;;5025951;28;20022;-79
2022/12/12 10:03:20;;;;;;;12.35;6.18;;;-0.40;92.50;;;;;;5032596;28;20040;-80
2022/12/12 10:06:12;;;;;;;17.67;7.45;;;-0.40;92.20;;;;;;4989899;28;20029;-80
2022/12/12 10:09:08;;;;;;;12.45;6.28;;;-0.20;92.00;;;;;;5022845;28;20034;-79
2022/12/12 10:11:49;;;;;;;12.57;5.38;;;-0.20;91.50;;;;;;5027548;28;20156;-80
2022/12/12 10:14:34;;;;;;;11.60;5.50;;;-0.20;90.90;;;;;;5027500;28;20037;-79
2022/12/12 10:17:03;;;;;;;9.27;5.53;;;-0.30;90.90;;;;;;5019103;28;20028;-79
2022/12/12 10:19:33;;;;;;;12.07;5.25;;;-0.30;90.70;;;;;;5031667;28;20026;-78
2022/12/12 10:22:13;;;;;;;7.80;5.05;;;-0.20;90.90;;;;;;5031421;28;20030;-79
2022/12/12 10:24:46;;;;;;;12.25;5.70;;;-0.30;90.50;;;;;;5032606;28;20058;-78
2022/12/12 10:27:13;;;;;;;11.23;5.22;;;-0.20;90.70;;;;;;5031832;28;20030;-79
2022/12/12 10:29:47;;;;;;;8.40;4.75;;;-0.10;90.60;;;;;;5030807;28;20061;-78
2022/12/12 10:32:27;;;;;;;9.52;5.28;;;-0.10;90.10;;;;;;5025788;28;20046;-78
2022/12/12 10:35:16;;;;;;;8.15;4.38;;;-0.10;90.10;;;;;;5029064;28;20050;-79
2022/12/12 10:38:02;;;;;;;9.77;5.28;;;0.00;90.30;;;;;;5025933;28;20037;-80
2022/12/12 10:41:09;;;;;;;7.55;4.80;;;0.10;90.10;;;;;;5021263;28;20026;-78
2022/12/12 10:43:50;;;;;;;12.73;4.10;;;0.20;90.00;;;;;;4990528;28;20097;-79
2022/12/12 10:46:38;;;;;;;6.28;4.03;;;0.20;89.90;;;;;;5009126;28;20025;-79
2022/12/12 10:49:16;;;;;;;6.72;4.15;;;0.30;89.70;;;;;;5034742;28;20767;-80
2022/12/12 10:51:44;;;;;;;9.85;5.50;;;0.20;89.40;;;;;;5028951;28;20033;-79
2022/12/12 10:54:19;;;;;;;10.00;4.85;;;0.30;89.20;;;;;;5033073;28;20029;-79
2022/12/12 10:57:03;;;;;;;8.50;4.43;;;0.30;89.00;;;;;;5032900;28;20041;-79
2022/12/12 10:59:28;;;;;;;7.07;4.45;;;0.40;88.10;;;;;;5033854;28;20093;-81
2022/12/12 11:01:58;;;;;;;10.90;4.55;;;0.50;87.90;;;;;;5031237;28;20061;-77
2022/12/12 11:04:26;;;;;;;7.68;4.20;;;0.70;87.70;;;;;;5029791;28;20045;-79
2022/12/12 11:06:53;;;;;;;9.32;4.43;;;0.90;87.10;;;;;;5030563;28;20395;-79
2022/12/12 11:09:24;;;;;;;10.57;4.63;;;1.00;86.70;;;;;;5028091;28;20038;-79
2022/12/12 11:11:58;;;;;;;9.50;4.75;;;1.20;85.90;;;;;;5026648;28;20080;-79
2022/12/12 11:14:43;;;;;;;14.90;4.75;;;1.30;84.60;;;;;;5026302;28;20030;-80
2022/12/12 11:17:28;;;;;;;6.70;3.40;;;1.40;82.50;;;;;;5023457;28;20097;-79
2022/12/12 11:19:56;;;;;;;5.50;3.03;;;1.30;80.10;;;;;;5030183;28;20024;-80
2022/12/12 11:22:23;;;;;;;7.05;3.40;;;1.20;79.10;;;;;;5015722;28;20045;-79
2022/12/12 11:24:50;;;;;;;5.80;3.55;;;1.10;77.40;;;;;;5024286;28;20052;-80
2022/12/12 11:27:26;;;;;;;11.40;4.07;;;1.00;77.60;;;;;;5022907;28;20026;-80
2022/12/12 11:29:56;;;;;;;6.88;4.55;;;0.80;78.20;;;;;;5025050;28;20026;-80
2022/12/12 11:32:29;;;;;;;7.28;3.70;;;0.70;78.70;;;;;;5016722;28;20090;-80
2022/12/12 11:34:58;;;;;;;10.73;4.40;;;0.60;78.80;;;;;;5008134;28;20046;-80
2022/12/12 11:37:27;;;;;;;9.70;3.38;;;0.60;79.10;;;;;;5007955;28;20015;-79
2022/12/12 11:39:55;;;;;;;7.53;3.28;;;0.60;78.80;;;;;;5010410;28;20022;-80
2022/12/12 11:42:28;;;;;;;7.25;3.30;;;0.50;78.50;;;;;;5013873;28;20134;-79
2022/12/12 11:45:08;;;;;;;7.65;3.30;;;0.40;77.20;;;;;;5019153;28;20013;-78
2022/12/12 11:48:02;;;;;;;6.93;3.42;;;0.20;77.30;;;;;;5025417;28;20034;-79
2022/12/12 11:50:29;;;;;;;6.93;3.72;;;0.10;76.80;;;;;;5040089;28;20033;-79
2022/12/12 11:53:00;;;;;;;7.80;4.20;;;0.00;76.60;;;;;;5040107;28;20105;-78
2022/12/12 11:55:46;;;;;;;7.15;3.35;;;-0.10;76.70;;;;;;5020598;28;20025;-79
2022/12/12 11:58:39;;;;;;;5.88;3.58;;;0.00;77.20;;;;;;5020262;28;20028;-79
2022/12/12 12:01:25;;;;;;;11.10;4.07;;;0.00;74.90;;;;;;5020579;28;20015;-78
2022/12/12 12:04:02;;;;;;;5.43;2.95;;;0.00;74.40;;;;;;5006434;28;20077;-79
2022/12/12 12:06:38;;;;;;;7.05;3.20;;;-0.10;74.60;;;;;;5057187;28;20041;-78
2022/12/12 12:09:38;;;;;;;5.63;3.35;;;-0.10;74.80;;;;;;5058809;28;20084;-79
2022/12/12 12:12:18;;;;;;;9.30;3.35;;;-0.10;75.00;;;;;;5033405;28;20050;-80
2022/12/12 12:15:18;;;;;;;6.32;3.33;;;-0.10;73.80;;;;;;5002732;28;20049;-79
2022/12/12 12:18:03;;;;;;;7.80;3.85;;;0.00;72.40;;;;;;5023205;28;20116;-80
2022/12/12 12:20:39;;;;;;;8.55;4.70;;;0.10;71.20;;;;;;5027332;28;20093;-80
2022/12/12 12:23:42;;;;;;;13.02;8.88;;;0.10;70.50;;;;;;5026415;28;20021;-80
2022/12/12 12:26:17;;;;;;;11.70;7.10;;;-0.10;71.20;;;;;;5024827;28;20494;-81
2022/12/12 12:28:45;;;;;;;6.93;3.63;;;-0.30;71.00;;;;;;5025843;28;20033;-78
2022/12/12 12:31:25;;;;;;;9.40;3.22;;;-0.50;71.00;;;;;;5027027;28;20034;-80
2022/12/12 12:34:32;;;;;;;4.97;3.25;;;-0.50;69.30;;;;;;5022052;28;20044;-80
2022/12/12 12:37:24;;;;;;;4.20;2.20;;;-0.60;69.70;;;;;;5015939;28;20276;-81
2022/12/12 12:40:03;;;;;;;8.35;2.88;;;-0.80;69.10;;;;;;5014806;28;20018;-80
2022/12/12 12:42:48;;;;;;;4.75;2.97;;;-0.90;70.00;;;;;;5021668;28;20132;-79
2022/12/12 12:45:16;;;;;;;6.90;2.65;;;-1.10;70.40;;;;;;5025481;28;20054;-81
2022/12/12 12:47:53;;;;;;;10.20;2.60;;;-1.10;70.60;;;;;;5027155;28;20037;-79
2022/12/12 12:50:23;;;;;;;5.55;3.03;;;-1.10;71.10;;;;;;5030487;28;20044;-78
2022/12/12 12:53:15;;;;;;;5.85;2.80;;;-1.10;71.10;;;;;;5025427;28;20018;-80
2022/12/12 12:55:49;;;;;;;8.88;2.95;;;-1.10;70.30;;;;;;5024052;28;20511;-79
2022/12/12 12:58:22;;;;;;;8.85;2.97;;;-1.20;70.20;;;;;;5018702;28;20021;-80
2022/12/12 13:01:12;;;;;;;6.35;3.15;;;-1.10;70.30;;;;;;5023558;28;20052;-79
2022/12/12 13:03:50;;;;;;;7.43;2.58;;;-1.20;69.80;;;;;;5021910;28;20038;-79
2022/12/12 13:06:29;;;;;;;6.85;3.10;;;-1.20;69.80;;;;;;5017239;28;20023;-79
2022/12/12 13:09:18;;;;;;;4.32;2.58;;;-1.10;70.20;;;;;;5003172;28;20038;-79
2022/12/12 13:11:47;;;;;;;4.30;2.58;;;-0.90;70.80;;;;;;5003733;28;20034;-80
2022/12/12 13:14:23;;;;;;;7.05;2.50;;;-0.80;71.10;;;;;;5006351;28;20060;-79